createdAt,value
2023-01-02T00:01:08.810Z,64.87
2023-01-02T00:04:15.430Z,65.37
2023-01-02T00:07:20.772Z,64.60
2023-01-02T00:10:27.034Z,64.56
2023-01-02T00:13:35.220Z,64.86
2023-01-02T00:16:41.445Z,64.65
2023-01-02T00:19:46.852Z,65.69
2023-01-02T00:22:53.182Z,65.38
2023-01-02T00:25:58.600Z,64.71
2023-01-02T00:29:07.647Z,64.60
2023-01-02T00:32:13.050Z,65.35
2023-01-02T00:35:19.572Z,64.78
2023-01-02T00:38:25.114Z,64.77
2023-01-02T00:41:31.444Z,64.26
2023-01-02T00:44:39.625Z,64.96
2023-01-02T00:47:46.032Z,64.88
2023-01-02T00:50:52.252Z,64.18
2023-01-02T00:53:58.483Z,63.99
2023-01-02T00:57:04.262Z,64.42
2023-01-02T01:00:21.600Z,63.80
2023-01-02T01:03:29.791Z,64.39
2023-01-02T01:06:36.846Z,64.29
2023-01-02T01:09:42.247Z,63.73
2023-01-02T01:12:48.482Z,63.32
2023-01-02T01:15:56.668Z,63.17
2023-01-02T01:19:02.998Z,62.84
2023-01-02T01:22:08.342Z,63.51
2023-01-02T01:25:14.688Z,63.29
2023-01-02T01:28:20.048Z,63.07
2023-01-02T01:31:29.414Z,62.58
2023-01-02T01:34:35.094Z,62.67
2023-01-02T01:37:42.132Z,62.13
2023-01-02T01:40:47.488Z,62.03
2023-01-02T01:43:57.182Z,62.83
2023-01-02T01:47:06.063Z,62.43
2023-01-02T01:50:17.967Z,62.80
2023-01-02T01:53:26.697Z,62.41
2023-01-02T01:56:33.085Z,62.98
2023-01-02T01:59:39.471Z,62.48
2023-01-02T02:02:55.366Z,63.21
2023-01-02T02:06:05.117Z,63.32
2023-01-02T02:09:22.622Z,62.56
2023-01-02T02:12:28.527Z,63.18
2023-01-02T02:15:54.692Z,63.21
2023-01-02T02:20:03.928Z,62.83
2023-01-02T02:24:05.545Z,62.61
2023-01-02T02:27:49.250Z,62.79
2023-01-02T02:31:12.150Z,63.19
2023-01-02T02:34:31.144Z,62.97
2023-01-02T02:37:53.097Z,62.84
2023-01-02T02:41:12.508Z,62.91
2023-01-02T02:44:38.206Z,63.57
2023-01-02T02:47:59.202Z,63.58
2023-01-02T02:51:16.304Z,63.47
2023-01-02T02:54:30.408Z,63.66
2023-01-02T02:57:39.955Z,64.01
2023-01-02T03:00:45.283Z,63.80
2023-01-02T03:03:54.289Z,64.48
2023-01-02T03:07:21.616Z,65.23
2023-01-02T03:10:46.753Z,65.46
2023-01-02T03:14:09.528Z,65.95
2023-01-02T03:17:32.577Z,66.41
2023-01-02T03:20:49.399Z,66.90
2023-01-02T03:23:58.416Z,67.07
2023-01-02T03:27:12.863Z,66.40
2023-01-02T03:30:24.997Z,66.00
2023-01-02T03:33:39.061Z,65.88
2023-01-02T03:36:57.569Z,65.26
2023-01-02T03:40:14.529Z,64.76
2023-01-02T03:43:29.323Z,64.36
2023-01-02T03:46:45.150Z,64.01
2023-01-02T03:49:57.800Z,64.10
2023-01-02T03:53:06.496Z,64.02
2023-01-02T03:56:30.798Z,63.85
2023-01-02T03:59:56.113Z,63.96
2023-01-02T04:03:13.809Z,63.59
2023-01-02T04:06:28.258Z,64.03
2023-01-02T04:09:43.330Z,64.08
2023-01-02T04:12:59.622Z,64.31
2023-01-02T04:16:11.419Z,64.88
2023-01-02T04:19:27.529Z,66.09
2023-01-02T04:22:46.086Z,67.94
2023-01-02T04:26:05.901Z,68.02
2023-01-02T04:29:12.511Z,68.21
2023-01-02T04:32:28.021Z,68.11
2023-01-02T04:35:34.720Z,67.85
2023-01-02T04:38:40.879Z,67.39
2023-01-02T04:41:49.918Z,67.50
2023-01-02T04:44:55.320Z,67.41
2023-01-02T04:48:01.643Z,67.01
2023-01-02T04:51:07.253Z,66.94
2023-01-02T04:54:15.418Z,67.12
2023-01-02T04:57:23.542Z,66.79
2023-01-02T05:00:30.091Z,66.68
2023-01-02T05:03:35.443Z,66.32
2023-01-02T05:06:42.108Z,66.45
2023-01-02T05:09:47.864Z,65.40
2023-01-02T05:12:56.913Z,65.42
2023-01-02T05:16:02.405Z,64.79
2023-01-02T05:19:08.708Z,64.83
2023-01-02T05:22:30.956Z,63.52
2023-01-02T05:25:39.288Z,62.69
2023-01-02T05:28:48.019Z,61.98
2023-01-02T05:31:54.247Z,62.23
2023-01-02T05:34:59.604Z,62.26
2023-01-02T05:38:05.901Z,62.54
2023-01-02T05:41:11.742Z,62.53
2023-01-02T05:44:20.860Z,62.63
2023-01-02T05:47:26.379Z,63.11
2023-01-02T05:50:32.586Z,63.04
2023-01-02T05:53:38.879Z,62.95
2023-01-02T05:56:45.152Z,64.11
2023-01-02T05:59:53.265Z,63.54
2023-01-02T06:03:00.105Z,63.63
2023-01-02T06:06:08.334Z,62.97
2023-01-02T06:09:18.175Z,63.65
2023-01-02T06:12:23.569Z,63.65
2023-01-02T06:15:32.535Z,63.16
2023-01-02T06:18:40.767Z,63.39
2023-01-02T06:21:47.036Z,63.65
2023-01-02T06:24:52.355Z,63.47
2023-01-02T06:27:58.579Z,63.21
2023-01-02T06:31:10.543Z,63.23
2023-01-02T06:34:17.960Z,63.07
2023-01-02T06:37:23.300Z,63.05
2023-01-02T06:40:29.545Z,63.82
2023-01-02T06:43:36.675Z,63.27
2023-01-02T06:46:45.707Z,63.74
2023-01-02T06:49:51.038Z,64.17
2023-01-02T06:52:57.296Z,64.25
2023-01-02T06:56:02.855Z,64.19
2023-01-02T06:59:09.070Z,63.98
2023-01-02T07:02:18.234Z,64.72
2023-01-02T07:05:25.245Z,64.29
2023-01-02T07:08:30.725Z,64.46
2023-01-02T07:11:37.040Z,63.67
2023-01-02T07:14:42.432Z,64.19
2023-01-02T07:17:51.494Z,64.22
2023-01-02T07:20:58.235Z,64.01
2023-01-02T07:24:04.521Z,64.44
2023-01-02T07:27:09.874Z,64.70
2023-01-02T07:30:17.371Z,64.25
2023-01-02T07:33:25.657Z,65.07
2023-01-02T07:36:32.146Z,65.09
2023-01-02T07:39:37.819Z,65.45
2023-01-02T07:42:44.038Z,65.49
2023-01-02T07:45:50.609Z,65.79
2023-01-02T07:49:00.034Z,65.64
2023-01-02T07:52:05.664Z,65.97
2023-01-02T07:55:12.506Z,66.23
2023-01-02T07:58:17.964Z,65.73
2023-01-02T08:01:24.367Z,65.47
2023-01-02T08:04:32.658Z,65.67
2023-01-02T08:07:44.637Z,65.44
2023-01-02T08:10:50.441Z,65.94
2023-01-02T08:13:56.893Z,66.17
2023-01-02T08:17:02.295Z,66.08
2023-01-02T08:20:14.408Z,65.96
2023-01-02T08:23:19.822Z,65.89
2023-01-02T08:26:26.336Z,65.76
2023-01-02T08:29:31.689Z,65.87
2023-01-02T08:32:40.279Z,65.71
2023-01-02T08:35:48.767Z,65.38
2023-01-02T08:38:55.090Z,65.29
2023-01-02T08:42:01.129Z,64.98
2023-01-02T08:45:08.489Z,65.31
2023-01-02T08:48:20.764Z,64.63
2023-01-02T08:51:31.613Z,64.48
2023-01-02T08:54:37.802Z,64.52
2023-01-02T08:57:44.000Z,63.94
2023-01-02T09:00:49.411Z,64.41
2023-01-02T09:03:56.540Z,64.03
2023-01-02T09:07:04.915Z,64.48
2023-01-02T09:10:12.576Z,64.00
2023-01-02T09:13:17.918Z,64.60
2023-01-02T09:16:25.420Z,63.71
2023-01-02T09:19:30.988Z,64.18
2023-01-02T09:22:40.831Z,63.73
2023-01-02T09:25:46.165Z,63.41
2023-01-02T09:28:52.676Z,63.47
2023-01-02T09:31:58.133Z,63.24
2023-01-02T09:35:04.460Z,64.03
2023-01-02T09:38:12.675Z,64.04
2023-01-02T09:41:36.195Z,63.39
2023-01-02T09:44:49.413Z,64.06
2023-01-02T09:48:03.018Z,63.00
2023-01-02T09:51:10.197Z,63.14
2023-01-02T09:54:29.789Z,63.86
2023-01-02T09:57:54.667Z,63.27
2023-01-02T10:01:03.117Z,62.79
2023-01-02T10:04:32.078Z,62.58
2023-01-02T10:07:52.127Z,62.73
2023-01-02T10:11:30.024Z,62.84
2023-01-02T10:14:55.989Z,63.06
2023-01-02T10:18:23.724Z,62.75
2023-01-02T10:21:37.523Z,62.56
2023-01-02T10:24:50.785Z,62.40
2023-01-02T10:28:13.071Z,62.32
2023-01-02T10:31:28.314Z,62.01
2023-01-02T10:34:47.975Z,62.25
2023-01-02T10:37:53.453Z,62.33
2023-01-02T10:40:59.962Z,61.16
2023-01-02T10:44:18.504Z,60.98
2023-01-02T10:47:37.497Z,60.92
2023-01-02T10:50:51.576Z,61.75
2023-01-02T10:54:07.613Z,61.79
2023-01-02T10:57:24.447Z,61.88
2023-01-02T11:00:39.224Z,61.91
2023-01-02T11:03:44.704Z,61.76
2023-01-02T11:06:59.569Z,61.32
2023-01-02T11:10:05.746Z,60.42
2023-01-02T11:13:15.819Z,60.32
2023-01-02T11:16:29.370Z,60.92
2023-01-02T11:19:45.944Z,60.33
2023-01-02T11:22:52.009Z,59.96
2023-01-02T11:26:01.463Z,60.39
2023-01-02T11:29:16.278Z,59.83
2023-01-02T11:32:38.741Z,60.33
2023-01-02T11:35:50.892Z,59.51
2023-01-02T11:39:01.009Z,59.55
2023-01-02T11:42:39.095Z,59.88
2023-01-02T11:45:47.786Z,59.15
2023-01-02T11:49:07.383Z,58.82
2023-01-02T11:52:22.143Z,59.26
2023-01-02T11:55:47.675Z,58.86
2023-01-02T11:59:05.751Z,58.93
2023-01-02T12:02:26.864Z,58.91
2023-01-02T12:05:58.451Z,59.41
2023-01-02T12:09:12.432Z,58.83
2023-01-02T12:12:50.144Z,58.75
2023-01-02T12:16:28.421Z,58.18
2023-01-02T12:20:18.012Z,58.55
2023-01-02T12:23:55.920Z,57.79
2023-01-02T12:27:17.352Z,57.99
2023-01-02T12:30:25.216Z,57.99
2023-01-02T12:33:53.762Z,57.21
2023-01-02T12:37:21.812Z,57.38
2023-01-02T12:41:05.146Z,57.32
2023-01-02T12:44:41.741Z,56.92
2023-01-02T12:48:18.361Z,57.02
2023-01-02T12:51:40.329Z,57.05
2023-01-02T12:55:14.196Z,56.50
2023-01-02T12:58:45.159Z,56.54
2023-01-02T13:02:09.094Z,56.48
2023-01-02T13:05:25.309Z,56.23
2023-01-02T13:08:46.742Z,56.23
2023-01-02T13:12:03.736Z,56.20
2023-01-02T13:15:25.318Z,56.13
2023-01-02T13:19:00.081Z,56.24
2023-01-02T13:22:24.529Z,56.29
2023-01-02T13:25:33.559Z,56.28
2023-01-02T13:28:44.524Z,56.80
2023-01-02T13:31:58.206Z,56.11
2023-01-02T13:35:07.533Z,56.31
2023-01-02T13:38:21.354Z,56.58
2023-01-02T13:41:58.842Z,56.13
2023-01-02T13:45:15.278Z,56.27
2023-01-02T13:48:36.760Z,56.20
2023-01-02T13:51:42.779Z,56.03
2023-01-02T13:55:34.210Z,56.04
2023-01-02T13:59:01.429Z,55.72
2023-01-02T14:02:21.301Z,55.82
2023-01-02T14:06:06.550Z,56.69
2023-01-02T14:09:17.301Z,56.70
2023-01-02T14:12:22.825Z,57.37
2023-01-02T14:15:31.403Z,56.87
2023-01-02T14:18:41.059Z,57.07
2023-01-02T14:22:07.553Z,57.47
2023-01-02T14:25:15.765Z,57.40
2023-01-02T14:28:30.789Z,57.24
2023-01-02T14:31:39.438Z,57.78
2023-01-02T14:34:52.279Z,57.59
2023-01-02T14:38:19.805Z,57.94
2023-01-02T14:42:38.893Z,57.80
2023-01-02T14:45:50.759Z,57.91
2023-01-02T14:49:25.475Z,58.73
2023-01-02T14:52:46.772Z,59.28
2023-01-02T14:56:06.926Z,58.83
2023-01-02T14:59:27.198Z,59.30
2023-01-02T15:02:43.219Z,58.89
2023-01-02T15:05:58.896Z,59.63
2023-01-02T15:09:16.607Z,58.93
2023-01-02T15:12:44.339Z,59.38
2023-01-02T15:15:56.235Z,60.00
2023-01-02T15:19:05.833Z,59.64
2023-01-02T15:22:15.159Z,60.29
2023-01-02T15:25:36.935Z,59.94
2023-01-02T15:28:45.977Z,60.52
2023-01-02T15:31:56.671Z,60.09
2023-01-02T15:35:24.951Z,61.36
2023-01-02T15:38:31.054Z,60.72
2023-01-02T15:41:47.033Z,60.89
2023-01-02T15:45:13.861Z,60.99
2023-01-02T15:48:24.531Z,61.29
2023-01-02T15:51:40.070Z,62.00
2023-01-02T15:54:48.934Z,62.16
2023-01-02T15:57:57.218Z,61.52
2023-01-02T16:01:25.736Z,62.18
2023-01-02T16:04:34.808Z,62.96
2023-01-02T16:07:42.203Z,62.52
2023-01-02T16:10:51.526Z,63.49
2023-01-02T16:14:19.415Z,63.57
2023-01-02T16:17:32.165Z,63.08
2023-01-02T16:20:38.519Z,63.14
2023-01-02T16:23:54.107Z,62.79
2023-01-02T16:27:00.437Z,63.53
2023-01-02T16:30:30.184Z,63.49
2023-01-02T16:33:39.424Z,62.69
2023-01-02T16:36:46.654Z,64.00
2023-01-02T16:39:53.894Z,64.20
2023-01-02T16:43:04.977Z,64.29
2023-01-02T16:46:18.127Z,63.88
2023-01-02T16:49:27.674Z,63.34
2023-01-02T16:52:34.223Z,63.89
2023-01-02T16:55:39.918Z,63.86
2023-01-02T16:58:46.471Z,64.67
2023-01-02T17:01:52.451Z,64.17
2023-01-02T17:05:01.528Z,64.03
2023-01-02T17:08:08.536Z,65.04
2023-01-02T17:11:18.880Z,64.40
2023-01-02T17:14:24.533Z,65.14
2023-01-02T17:17:31.305Z,64.91
2023-01-02T17:20:40.214Z,65.34
2023-01-02T17:23:46.455Z,65.90
2023-01-02T17:26:51.998Z,65.92
2023-01-02T17:29:58.455Z,66.35
2023-01-02T17:33:05.244Z,66.19
2023-01-02T17:36:15.160Z,65.84
2023-01-02T17:39:21.708Z,66.71
2023-01-02T17:42:28.359Z,67.23
2023-01-02T17:45:33.795Z,66.56
2023-01-02T17:48:40.147Z,66.42
2023-01-02T17:51:48.285Z,66.53
2023-01-02T17:54:56.711Z,66.92
2023-01-02T17:58:03.405Z,67.04
2023-01-02T18:01:09.711Z,67.82
2023-01-02T18:04:15.419Z,67.93
2023-01-02T18:07:24.598Z,68.15
2023-01-02T18:10:33.196Z,67.38
2023-01-02T18:13:46.873Z,68.13
2023-01-02T18:16:57.283Z,68.05
2023-01-02T18:20:09.209Z,67.69
2023-01-02T18:23:18.893Z,68.20
2023-01-02T18:26:27.810Z,67.44
2023-01-02T18:29:33.330Z,67.80
2023-01-02T18:32:43.011Z,67.92
2023-01-02T18:35:58.112Z,67.94
2023-01-02T18:39:26.062Z,68.44
2023-01-02T18:42:35.404Z,68.73
2023-01-02T18:45:43.122Z,68.31
2023-01-02T18:48:49.703Z,67.74
2023-01-02T18:52:22.765Z,68.89
2023-01-02T18:55:40.111Z,68.39
2023-01-02T18:58:51.744Z,68.35
2023-01-02T19:02:02.356Z,68.74
2023-01-02T19:05:25.855Z,68.73
2023-01-02T19:08:40.356Z,68.71
2023-01-02T19:12:15.006Z,68.14
2023-01-02T19:15:44.380Z,68.81
2023-01-02T19:18:54.318Z,68.33
2023-01-02T19:22:00.481Z,69.18
2023-01-02T19:25:22.137Z,68.66
2023-01-02T19:28:33.837Z,68.55
2023-01-02T19:31:46.897Z,68.83
2023-01-02T19:34:56.925Z,69.23
2023-01-02T19:38:24.147Z,68.91
2023-01-02T19:41:56.770Z,69.29
2023-01-02T19:45:10.151Z,69.57
2023-01-02T19:48:18.271Z,68.99
2023-01-02T19:51:25.229Z,69.58
2023-01-02T19:54:30.848Z,69.22
2023-01-02T19:57:37.848Z,69.23
2023-01-02T20:00:46.849Z,69.22
2023-01-02T20:03:53.172Z,69.94
2023-01-02T20:06:58.964Z,69.57
2023-01-02T20:10:05.499Z,69.49
2023-01-02T20:13:10.913Z,69.64
2023-01-02T20:16:20.577Z,69.55
2023-01-02T20:19:27.224Z,69.20
2023-01-02T20:22:34.181Z,69.93
2023-01-02T20:25:40.164Z,69.54
2023-01-02T20:28:47.162Z,70.58
2023-01-02T20:31:56.394Z,70.10
2023-01-02T20:35:02.688Z,70.30
2023-01-02T20:38:08.156Z,69.97
2023-01-02T20:41:14.406Z,69.94
2023-01-02T20:44:20.943Z,69.80
2023-01-02T20:47:29.995Z,69.87
2023-01-02T20:50:35.444Z,69.78
2023-01-02T20:53:41.756Z,70.59
2023-01-02T20:56:47.180Z,69.95
2023-01-02T20:59:53.475Z,69.20
2023-01-02T21:03:02.344Z,69.46
2023-01-02T21:06:09.190Z,70.02
2023-01-02T21:09:14.853Z,70.33
2023-01-02T21:12:36.835Z,70.52
2023-01-02T21:15:47.189Z,69.98
2023-01-02T21:18:57.995Z,69.75
2023-01-02T21:22:03.486Z,70.07
2023-01-02T21:25:10.612Z,70.54
2023-01-02T21:28:18.129Z,70.29
2023-01-02T21:31:24.718Z,70.84
2023-01-02T21:34:32.880Z,70.47
2023-01-02T21:37:39.098Z,70.13
2023-01-02T21:40:44.473Z,69.60
2023-01-02T21:43:51.621Z,70.08
2023-01-02T21:46:58.209Z,69.93
2023-01-02T21:50:08.649Z,69.69
2023-01-02T21:53:16.938Z,69.35
2023-01-02T21:56:23.408Z,69.74
2023-01-02T21:59:29.678Z,69.91
2023-01-02T22:02:38.795Z,70.06
2023-01-02T22:05:47.751Z,70.36
2023-01-02T22:08:53.967Z,70.00
2023-01-02T22:11:59.449Z,70.11
2023-01-02T22:15:09.993Z,70.05
2023-01-02T22:18:15.832Z,69.89
2023-01-02T22:21:25.109Z,69.44
2023-01-02T22:24:32.392Z,69.66
2023-01-02T22:27:39.311Z,69.73
2023-01-02T22:30:44.787Z,69.60
2023-01-02T22:33:51.180Z,69.51
2023-01-02T22:36:59.323Z,70.09
2023-01-02T22:40:05.559Z,69.45
2023-01-02T22:43:22.489Z,70.30
2023-01-02T22:46:37.896Z,70.33
2023-01-02T22:49:45.307Z,70.70
2023-01-02T22:52:55.196Z,70.61
2023-01-02T22:56:01.846Z,70.94
2023-01-02T22:59:08.130Z,71.47
2023-01-02T23:02:19.529Z,71.57
2023-01-02T23:05:26.014Z,71.64
2023-01-02T23:08:34.244Z,71.76
2023-01-02T23:11:40.712Z,71.41
2023-01-02T23:14:47.770Z,71.46
2023-01-02T23:18:09.762Z,71.88
2023-01-02T23:21:15.499Z,71.64
2023-01-02T23:24:29.683Z,71.62
2023-01-02T23:27:36.439Z,71.57
2023-01-02T23:30:43.232Z,71.92
2023-01-02T23:33:48.615Z,71.77
2023-01-02T23:36:59.124Z,71.51
2023-01-02T23:40:08.662Z,71.50
2023-01-02T23:43:15.676Z,71.06
2023-01-02T23:46:21.861Z,71.37
2023-01-02T23:49:28.632Z,71.17
2023-01-02T23:52:34.043Z,71.33
2023-01-02T23:55:46.864Z,71.30
2023-01-02T23:58:55.288Z,70.92
